Terminal Aerodrome Forecast
Issued by NWS

Home | Current Version | Previous Version | Text Only | Print | Product List | Glossary On
Versions: 1 2 3 4 5 6 7 8 9 10 11 12 13 14 15 16 17 18 19 20 21 22 23 24 25 26 27 28 29 30 31 32 33 34 35 36 37 38 39 40 41 42 43 44 45 46
000
FTAK31 PAFA 071737
TAFAOM
TAF
PAOM 071737Z 0718/0818 22012KT 2SM -RA BR BKN004 OVC020
     FM072000 13012KT 3SM -RA BR BKN007 OVC015
     FM080400 15012KT P6SM VCSH BKN015 OVC035=

USA.gov is the U.S. government's official web portal to all federal, state and local government web resources and services.